Time;durP1;ratioP1;P1;durP2;ratioP2;P2;SDS_P1;SDS_P2;PMS_P1;PMS_P2;Temp;Humidity;BMP_temperature;BMP_pressure;BME280_temperature;BME280_humidity;BME280_pressure;Samples;Min_cycle;Max_cycle;Signal;HPM_P1;HPM_P2
2021/12/02 00:01:18;;;;;;;4.88;0.70;;;20.10;53.80;;;;;;5013450;28;20050;-59
2021/12/02 00:03:45;;;;;;;3.65;0.73;;;20.00;53.70;;;;;;5012874;28;20046;-60
2021/12/02 00:06:12;;;;;;;3.05;0.73;;;20.00;53.60;;;;;;5013986;28;20053;-59
2021/12/02 00:08:38;;;;;;;2.73;0.93;;;20.00;53.60;;;;;;5013325;28;20092;-60
2021/12/02 00:11:04;;;;;;;4.35;0.80;;;20.00;53.60;;;;;;5014236;28;20069;-59
2021/12/02 00:13:36;;;;;;;4.30;0.88;;;20.00;53.60;;;;;;5013424;28;20067;-60
2021/12/02 00:16:21;;;;;;;4.22;0.80;;;20.00;53.50;;;;;;5013931;28;20128;-60
2021/12/02 00:21:20;;;;;;;3.58;0.90;;;20.00;53.50;;;;;;5012575;28;20581;-60
2021/12/02 00:23:58;;;;;;;2.55;0.60;;;20.00;53.50;;;;;;5013854;28;20046;-60
2021/12/02 00:26:23;;;;;;;3.40;0.75;;;19.90;53.50;;;;;;5029703;28;20046;-60
2021/12/02 00:28:54;;;;;;;3.58;1.02;;;19.90;53.50;;;;;;5012838;28;20077;-59
2021/12/02 00:31:20;;;;;;;2.88;0.63;;;19.90;53.40;;;;;;5013088;28;20084;-60
2021/12/02 00:33:49;;;;;;;1.98;0.70;;;19.90;53.40;;;;;;5012965;28;20088;-60
2021/12/02 00:36:15;;;;;;;4.65;0.70;;;19.90;53.40;;;;;;5012739;28;20042;-60
2021/12/02 00:38:41;;;;;;;1.75;0.70;;;19.90;53.40;;;;;;5012348;28;20042;-60
2021/12/02 00:41:26;;;;;;;2.78;0.70;;;19.90;53.40;;;;;;5013263;28;20042;-60
2021/12/02 00:43:52;;;;;;;2.45;0.80;;;19.90;53.40;;;;;;5012676;28;20476;-59
2021/12/02 00:46:19;;;;;;;3.70;0.90;;;19.90;53.40;;;;;;5013905;28;20058;-60
2021/12/02 00:48:45;;;;;;;3.80;0.60;;;19.80;53.30;;;;;;5011559;28;20490;-60
2021/12/02 00:51:11;;;;;;;3.00;0.82;;;19.80;53.40;;;;;;5012676;28;20101;-60
2021/12/02 00:53:42;;;;;;;2.08;0.43;;;19.80;53.40;;;;;;5012614;28;20042;-60
2021/12/02 00:56:08;;;;;;;2.63;0.65;;;19.80;53.30;;;;;;5013118;28;20034;-59
2021/12/02 00:58:34;;;;;;;2.40;0.70;;;19.80;53.40;;;;;;5012169;28;20136;-60
2021/12/02 01:01:00;;;;;;;2.53;0.70;;;19.80;53.30;;;;;;5013336;28;20053;-60
2021/12/02 01:03:27;;;;;;;3.05;0.50;;;19.80;53.40;;;;;;5013010;28;20053;-60
2021/12/02 01:05:52;;;;;;;2.63;0.60;;;19.80;53.40;;;;;;5013343;28;20041;-60
2021/12/02 01:08:21;;;;;;;2.75;0.90;;;19.80;53.30;;;;;;5012107;28;20107;-60
2021/12/02 01:10:47;;;;;;;1.83;0.55;;;19.80;53.40;;;;;;5011158;28;20168;-60
2021/12/02 01:13:12;;;;;;;2.15;0.63;;;19.80;53.40;;;;;;5011855;28;20132;-60
2021/12/02 01:15:38;;;;;;;2.90;0.60;;;19.70;53.30;;;;;;5013431;28;20103;-59
2021/12/02 01:18:03;;;;;;;3.20;0.65;;;19.70;53.30;;;;;;5010963;28;20406;-60
2021/12/02 01:20:30;;;;;;;1.42;0.40;;;19.70;53.30;;;;;;5012183;28;20101;-59
2021/12/02 01:22:55;;;;;;;1.77;0.60;;;19.70;53.30;;;;;;5027168;28;20481;-60
2021/12/02 01:25:21;;;;;;;1.85;0.60;;;19.70;53.30;;;;;;5011806;28;20037;-60
2021/12/02 01:27:47;;;;;;;3.53;0.77;;;19.70;53.30;;;;;;5011701;28;20135;-60
2021/12/02 01:30:13;;;;;;;2.30;0.60;;;19.70;53.30;;;;;;5012327;28;20046;-59
2021/12/02 01:32:39;;;;;;;2.58;0.60;;;19.70;53.30;;;;;;5011774;28;20100;-60
2021/12/02 01:35:05;;;;;;;2.85;0.82;;;19.60;53.20;;;;;;5011468;28;20490;-59
2021/12/02 01:37:30;;;;;;;1.95;0.50;;;19.70;53.30;;;;;;5012333;28;20092;-60
2021/12/02 01:39:56;;;;;;;2.10;0.52;;;19.60;53.30;;;;;;5011510;28;20045;-60
2021/12/02 01:42:27;;;;;;;2.58;0.57;;;19.60;53.30;;;;;;5011351;28;20484;-60
2021/12/02 01:44:55;;;;;;;2.22;0.60;;;19.60;53.20;;;;;;5010526;28;20441;-59
2021/12/02 01:47:25;;;;;;;3.13;0.70;;;19.60;53.30;;;;;;5012845;28;20065;-59
2021/12/02 01:49:53;;;;;;;3.20;0.70;;;19.60;53.20;;;;;;5011314;28;20046;-60
2021/12/02 01:52:20;;;;;;;2.92;0.60;;;19.60;53.20;;;;;;5027183;28;20046;-59
2021/12/02 01:54:46;;;;;;;2.35;0.70;;;19.60;53.20;;;;;;5011644;28;20080;-59
2021/12/02 01:57:30;;;;;;;3.75;0.82;;;19.60;53.20;;;;;;5012934;28;20074;-60
2021/12/02 02:00:15;;;;;;;3.30;0.70;;;19.60;53.20;;;;;;5010372;28;20069;-60
2021/12/02 02:02:41;;;;;;;2.83;0.80;;;19.60;53.20;;;;;;5011267;28;20056;-59
2021/12/02 02:05:12;;;;;;;3.22;0.50;;;19.60;53.20;;;;;;5010703;28;20042;-59
2021/12/02 02:07:59;;;;;;;2.00;0.65;;;19.60;53.20;;;;;;5011602;28;20082;-60
2021/12/02 02:10:25;;;;;;;4.20;0.90;;;19.60;53.20;;;;;;5012791;28;20068;-59
2021/12/02 02:12:51;;;;;;;2.53;0.70;;;19.50;53.20;;;;;;5009860;28;20096;-60
2021/12/02 02:15:16;;;;;;;4.20;0.70;;;19.50;53.20;;;;;;5011382;28;20042;-60
2021/12/02 02:17:52;;;;;;;2.20;0.80;;;19.60;53.30;;;;;;5012447;28;20137;-59
2021/12/02 02:20:25;;;;;;;2.15;0.60;;;19.50;53.20;;;;;;5011771;28;20129;-60
2021/12/02 02:22:50;;;;;;;2.33;0.60;;;19.50;53.20;;;;;;5011366;28;20054;-60
2021/12/02 02:25:18;;;;;;;2.30;0.50;;;19.60;53.20;;;;;;5010889;28;20137;-60
2021/12/02 02:27:45;;;;;;;2.28;0.60;;;19.60;53.20;;;;;;5011432;28;20441;-60
2021/12/02 02:30:11;;;;;;;2.95;0.73;;;19.60;53.20;;;;;;5012404;28;20050;-60
2021/12/02 02:32:37;;;;;;;2.45;0.60;;;19.60;53.20;;;;;;5011343;28;20074;-60
2021/12/02 02:35:03;;;;;;;2.03;0.50;;;19.60;53.10;;;;;;5010427;28;20050;-59
2021/12/02 02:37:33;;;;;;;2.80;0.60;;;19.60;53.10;;;;;;5012482;28;20081;-60
2021/12/02 02:40:00;;;;;;;1.83;0.50;;;19.60;53.00;;;;;;5012381;28;20049;-60
2021/12/02 02:42:25;;;;;;;1.70;0.50;;;19.60;52.90;;;;;;5011696;28;20065;-60
2021/12/02 02:44:51;;;;;;;1.58;0.60;;;19.60;52.80;;;;;;5010975;28;20108;-60
2021/12/02 02:47:17;;;;;;;1.77;0.45;;;19.60;52.70;;;;;;5010593;28;20050;-59
2021/12/02 02:49:42;;;;;;;2.38;0.55;;;19.60;52.70;;;;;;5012005;28;20054;-60
2021/12/02 02:52:08;;;;;;;2.40;0.60;;;19.60;52.70;;;;;;5011931;28;20084;-60
2021/12/02 02:54:34;;;;;;;2.58;0.60;;;19.60;52.60;;;;;;5013301;28;20054;-60
2021/12/02 02:57:05;;;;;;;3.15;0.57;;;19.60;52.60;;;;;;5031006;28;20176;-60
2021/12/02 02:59:43;;;;;;;1.17;0.40;;;19.60;52.60;;;;;;5015730;28;20092;-60
2021/12/02 03:02:26;;;;;;;1.33;0.40;;;19.70;52.60;;;;;;5029129;28;20056;-60
2021/12/02 03:05:00;;;;;;;2.00;0.60;;;19.70;52.60;;;;;;5018672;28;20053;-60
2021/12/02 03:07:33;;;;;;;1.88;0.50;;;19.70;52.50;;;;;;5002403;28;20111;-60
2021/12/02 03:10:41;;;;;;;2.72;0.68;;;19.70;52.50;;;;;;5032285;28;20409;-60
2021/12/02 03:12:56;;;;;;;0.90;0.40;;;19.70;52.50;;;;;;5020016;28;20056;-60
2021/12/02 03:17:47;;;;;;;2.05;0.60;;;19.70;52.60;;;;;;5033256;28;20041;-60
2021/12/02 03:20:13;;;;;;;1.55;0.40;;;19.70;52.50;;;;;;5034143;28;20077;-60
2021/12/02 03:22:39;;;;;;;1.42;0.50;;;19.80;52.60;;;;;;5033320;28;20053;-60
2021/12/02 03:25:05;;;;;;;1.45;0.43;;;19.80;52.60;;;;;;5033893;28;20033;-60
2021/12/02 03:27:31;;;;;;;2.33;0.50;;;19.80;52.60;;;;;;5034909;28;20045;-60
2021/12/02 03:29:56;;;;;;;1.75;0.50;;;19.80;52.60;;;;;;5033655;28;20047;-59
2021/12/02 03:32:22;;;;;;;2.50;0.50;;;19.80;52.60;;;;;;5033928;28;20041;-60
2021/12/02 03:34:47;;;;;;;2.00;0.60;;;19.80;52.60;;;;;;5033732;28;20128;-60
2021/12/02 03:37:13;;;;;;;0.82;0.45;;;19.80;52.60;;;;;;5034487;28;20415;-60
2021/12/02 03:39:38;;;;;;;1.80;0.47;;;19.80;52.60;;;;;;5034897;28;20084;-60
2021/12/02 03:42:04;;;;;;;1.23;0.32;;;19.80;52.60;;;;;;5033553;28;20072;-60
2021/12/02 03:44:30;;;;;;;2.03;0.60;;;19.90;52.60;;;;;;5034101;28;20041;-60
2021/12/02 03:46:55;;;;;;;2.40;0.50;;;19.90;52.70;;;;;;5034418;28;20050;-59
2021/12/02 03:49:21;;;;;;;0.80;0.50;;;19.90;52.60;;;;;;5034768;28;20500;-60
2021/12/02 03:51:47;;;;;;;1.52;0.50;;;19.90;52.60;;;;;;5033716;28;20048;-60
2021/12/02 03:54:12;;;;;;;1.42;0.55;;;19.90;52.60;;;;;;5034685;28;20134;-60
2021/12/02 03:56:38;;;;;;;1.40;0.43;;;19.90;52.60;;;;;;5034803;28;20496;-60
2021/12/02 03:59:03;;;;;;;1.33;0.40;;;19.90;52.50;;;;;;5033135;28;20061;-60
2021/12/02 04:01:29;;;;;;;2.08;0.40;;;19.90;52.50;;;;;;5033276;28;20052;-59
2021/12/02 04:03:54;;;;;;;1.88;0.60;;;19.90;52.60;;;;;;5034422;28;20041;-60
2021/12/02 04:06:20;;;;;;;2.28;0.60;;;19.90;52.60;;;;;;5032508;28;20049;-60
2021/12/02 04:08:49;;;;;;;2.30;0.50;;;19.90;52.60;;;;;;5034005;28;20049;-60
2021/12/02 04:11:26;;;;;;;1.92;0.47;;;19.90;52.60;;;;;;5034306;28;20045;-60
2021/12/02 04:14:07;;;;;;;1.33;0.40;;;19.90;52.60;;;;;;5033413;28;20041;-60
2021/12/02 04:16:36;;;;;;;1.20;0.40;;;20.00;52.60;;;;;;5034415;28;20053;-60
2021/12/02 04:19:03;;;;;;;1.88;0.50;;;20.00;52.60;;;;;;5033042;28;20056;-60
2021/12/02 04:21:29;;;;;;;2.35;0.52;;;20.00;52.60;;;;;;5034013;28;20474;-60
2021/12/02 04:23:54;;;;;;;1.30;0.40;;;20.00;52.50;;;;;;5033688;28;20052;-60
2021/12/02 04:26:20;;;;;;;1.73;0.45;;;20.00;52.50;;;;;;5033061;28;20087;-60
2021/12/02 04:28:46;;;;;;;0.90;0.30;;;20.00;52.50;;;;;;5033470;28;20041;-60
2021/12/02 04:31:11;;;;;;;1.13;0.30;;;20.00;52.60;;;;;;5032643;28;20234;-59
2021/12/02 04:33:37;;;;;;;1.85;0.52;;;20.00;52.50;;;;;;5033073;28;20049;-60
2021/12/02 04:36:03;;;;;;;1.23;0.30;;;20.00;52.50;;;;;;5032656;28;20449;-60
2021/12/02 04:38:28;;;;;;;1.55;0.40;;;20.00;52.50;;;;;;5032610;28;20137;-60
2021/12/02 04:40:54;;;;;;;1.50;0.40;;;20.00;52.50;;;;;;5032690;28;20064;-60
2021/12/02 04:43:20;;;;;;;2.45;0.30;;;20.00;52.50;;;;;;5033747;28;20045;-60
2021/12/02 04:45:46;;;;;;;2.40;0.40;;;20.00;52.50;;;;;;5033499;28;20060;-60
2021/12/02 04:48:11;;;;;;;1.80;0.40;;;20.00;52.40;;;;;;5032789;28;20401;-59
2021/12/02 04:50:37;;;;;;;2.13;0.50;;;20.10;52.50;;;;;;5033759;28;20041;-60
2021/12/02 04:53:02;;;;;;;1.17;0.47;;;20.10;52.50;;;;;;5033451;28;20041;-60
2021/12/02 04:55:28;;;;;;;1.80;0.50;;;20.10;52.50;;;;;;5032663;28;20133;-59
2021/12/02 04:57:54;;;;;;;1.30;0.55;;;20.10;52.40;;;;;;5033294;28;20486;-60
2021/12/02 05:00:20;;;;;;;1.10;0.30;;;20.10;52.50;;;;;;5032200;28;20045;-60
2021/12/02 05:02:45;;;;;;;0.77;0.28;;;20.10;52.40;;;;;;5023769;28;20559;-60
2021/12/02 05:05:11;;;;;;;1.95;0.32;;;20.10;52.40;;;;;;5013003;28;20045;-60
2021/12/02 05:07:36;;;;;;;1.20;0.35;;;20.10;52.40;;;;;;5012773;28;20127;-60
2021/12/02 05:10:05;;;;;;;1.52;0.50;;;20.10;52.40;;;;;;5012187;28;20092;-60
2021/12/02 05:12:31;;;;;;;2.25;0.45;;;20.10;52.30;;;;;;5012156;28;20050;-60
2021/12/02 05:14:56;;;;;;;0.90;0.40;;;20.10;52.30;;;;;;5012986;28;20045;-60
2021/12/02 05:17:22;;;;;;;1.60;0.52;;;20.10;52.30;;;;;;5011174;28;20053;-60
2021/12/02 05:19:47;;;;;;;0.95;0.30;;;20.10;52.30;;;;;;5012925;28;20038;-59
2021/12/02 05:22:13;;;;;;;1.90;0.40;;;20.10;52.30;;;;;;5012847;28;20038;-60
2021/12/02 05:24:38;;;;;;;1.83;0.40;;;20.10;52.20;;;;;;5013278;28;20037;-60
2021/12/02 05:27:04;;;;;;;1.40;0.40;;;20.10;52.30;;;;;;5011578;28;20038;-60
2021/12/02 05:29:30;;;;;;;1.20;0.40;;;20.10;52.20;;;;;;5012392;28;20049;-59
2021/12/02 05:31:55;;;;;;;1.58;0.50;;;20.20;52.30;;;;;;5011384;28;20446;-60
2021/12/02 05:34:21;;;;;;;1.30;0.50;;;20.10;52.20;;;;;;5013085;28;20046;-60
2021/12/02 05:36:46;;;;;;;0.55;0.30;;;20.20;52.20;;;;;;5011934;28;20045;-60
2021/12/02 05:39:12;;;;;;;0.80;0.30;;;20.10;52.20;;;;;;5012940;28;20045;-59
2021/12/02 05:41:37;;;;;;;0.95;0.30;;;20.20;52.20;;;;;;5013110;28;20096;-60
2021/12/02 05:44:03;;;;;;;1.45;0.40;;;20.20;52.20;;;;;;5010866;28;20038;-60
2021/12/02 05:46:29;;;;;;;1.48;0.40;;;20.20;52.20;;;;;;5011646;28;20042;-60
2021/12/02 05:48:54;;;;;;;1.77;0.50;;;20.20;52.20;;;;;;5012582;28;20085;-60
2021/12/02 05:51:20;;;;;;;0.95;0.40;;;20.20;52.20;;;;;;5012242;28;20042;-60
2021/12/02 05:53:46;;;;;;;0.98;0.40;;;20.20;52.20;;;;;;5012302;28;20052;-60
2021/12/02 05:56:11;;;;;;;0.90;0.40;;;20.20;52.20;;;;;;5013101;28;20176;-60
2021/12/02 05:58:37;;;;;;;0.80;0.40;;;20.20;52.20;;;;;;5012125;28;20050;-60
2021/12/02 06:01:02;;;;;;;1.23;0.40;;;20.20;52.10;;;;;;5012727;28;20057;-60
2021/12/02 06:03:28;;;;;;;1.95;0.40;;;20.20;52.00;;;;;;5012694;28;20050;-60
2021/12/02 06:05:53;;;;;;;1.67;0.50;;;20.20;52.00;;;;;;5011779;28;20133;-60
2021/12/02 06:08:19;;;;;;;1.10;0.30;;;20.20;52.00;;;;;;5012581;28;20089;-60
2021/12/02 06:10:45;;;;;;;1.40;0.30;;;20.20;52.10;;;;;;5012328;28;20100;-59
2021/12/02 06:13:10;;;;;;;1.05;0.38;;;20.20;52.10;;;;;;5010714;28;20157;-59
2021/12/02 06:15:36;;;;;;;1.85;0.55;;;20.30;52.10;;;;;;5012845;28;20045;-60
2021/12/02 06:18:01;;;;;;;1.33;0.40;;;20.30;52.10;;;;;;5011223;28;20045;-60
2021/12/02 06:20:27;;;;;;;1.65;0.30;;;20.30;52.20;;;;;;5012177;28;20053;-59
2021/12/02 06:22:52;;;;;;;1.00;0.30;;;20.20;52.10;;;;;;5010461;28;20046;-60
2021/12/02 06:27:48;;;;;;;1.88;0.50;;;20.30;52.30;;;;;;5012246;28;20046;-60
2021/12/02 06:30:14;;;;;;;1.23;0.40;;;20.30;52.00;;;;;;5014730;28;20405;-60
2021/12/02 06:32:40;;;;;;;1.85;0.40;;;20.20;51.90;;;;;;5015819;28;20747;-60
2021/12/02 06:35:07;;;;;;;1.40;0.50;;;20.30;51.90;;;;;;5016557;28;20538;-59
2021/12/02 06:37:32;;;;;;;2.08;0.63;;;20.30;52.00;;;;;;5016091;28;20084;-59
2021/12/02 06:39:58;;;;;;;1.50;0.40;;;20.30;52.00;;;;;;5015124;28;20081;-60
2021/12/02 06:42:23;;;;;;;2.25;0.40;;;20.30;52.00;;;;;;5016497;28;20053;-60
2021/12/02 06:44:49;;;;;;;1.05;0.40;;;20.30;52.00;;;;;;5015785;28;20053;-59
2021/12/02 06:47:15;;;;;;;1.15;0.40;;;20.30;52.20;;;;;;5014129;28;20057;-59
2021/12/02 06:49:40;;;;;;;1.48;0.60;;;20.30;52.10;;;;;;5015792;28;20520;-59
2021/12/02 06:52:10;;;;;;;1.20;0.50;;;20.30;52.10;;;;;;5018667;28;20490;-60
2021/12/02 06:54:36;;;;;;;3.60;0.60;;;20.30;52.20;;;;;;5015328;28;20046;-62
2021/12/02 06:57:02;;;;;;;1.98;0.57;;;20.30;52.30;;;;;;5015698;28;20048;-62
2021/12/02 06:59:27;;;;;;;1.95;0.60;;;20.40;52.50;;;;;;5023382;28;20080;-62
2021/12/02 07:01:53;;;;;;;1.48;0.40;;;20.40;52.70;;;;;;5034624;28;20413;-62
2021/12/02 07:04:18;;;;;;;2.30;0.60;;;20.40;52.80;;;;;;5035818;28;20374;-61
2021/12/02 07:06:44;;;;;;;2.53;0.55;;;20.40;52.90;;;;;;5034828;28;20512;-62
2021/12/02 07:09:10;;;;;;;0.77;0.38;;;20.40;53.00;;;;;;5034838;28;20046;-61
2021/12/02 07:11:35;;;;;;;1.55;0.50;;;20.40;53.00;;;;;;5035602;28;20042;-60
2021/12/02 07:14:07;;;;;;;2.63;0.70;;;20.40;53.20;;;;;;5034888;28;20053;-60
2021/12/02 07:16:32;;;;;;;1.23;0.60;;;20.40;53.10;;;;;;5031592;28;20045;-59
2021/12/02 07:18:59;;;;;;;1.50;0.57;;;20.40;53.00;;;;;;5034901;28;20409;-62
2021/12/02 07:21:24;;;;;;;4.47;0.90;;;20.40;53.10;;;;;;5035294;28;20045;-62
2021/12/02 07:23:51;;;;;;;3.25;0.70;;;20.40;53.30;;;;;;5033930;28;20462;-62
2021/12/02 07:26:16;;;;;;;2.65;0.60;;;20.40;53.40;;;;;;5033652;28;20051;-62
2021/12/02 07:28:44;;;;;;;1.65;0.57;;;20.40;53.60;;;;;;5032685;28;20125;-61
2021/12/02 07:31:10;;;;;;;2.50;0.70;;;20.40;53.60;;;;;;5033688;28;20037;-62
2021/12/02 07:33:37;;;;;;;2.53;0.60;;;20.50;53.80;;;;;;5050419;28;20092;-61
2021/12/02 07:36:03;;;;;;;2.07;0.60;;;20.50;53.70;;;;;;5034197;28;20140;-61
2021/12/02 07:38:29;;;;;;;2.10;0.55;;;20.50;53.80;;;;;;5034800;28;20080;-61
2021/12/02 07:40:54;;;;;;;1.90;0.57;;;20.40;53.70;;;;;;5049794;28;20049;-61
2021/12/02 07:43:21;;;;;;;3.05;0.70;;;20.50;53.80;;;;;;5032727;28;20076;-61
2021/12/02 07:45:47;;;;;;;1.60;0.80;;;20.50;53.90;;;;;;5034702;28;20068;-61
2021/12/02 07:48:13;;;;;;;1.10;0.45;;;20.50;54.00;;;;;;5034404;28;20042;-61
2021/12/02 07:50:39;;;;;;;1.98;0.70;;;20.50;54.00;;;;;;5033920;28;20052;-61
2021/12/02 07:53:06;;;;;;;2.05;0.70;;;20.50;54.00;;;;;;5034005;28;20034;-61
2021/12/02 07:55:31;;;;;;;1.95;0.60;;;20.50;54.00;;;;;;5034670;28;20486;-61
2021/12/02 07:57:57;;;;;;;1.85;0.50;;;20.50;54.10;;;;;;5048459;28;20052;-62
2021/12/02 08:00:25;;;;;;;2.22;0.43;;;20.50;54.20;;;;;;5026149;28;20085;-60
2021/12/02 08:02:51;;;;;;;1.33;0.60;;;20.50;54.10;;;;;;5014910;28;20538;-60
2021/12/02 08:05:17;;;;;;;2.67;0.75;;;20.50;54.10;;;;;;5023180;28;20038;-59
2021/12/02 08:07:44;;;;;;;1.98;0.80;;;20.50;54.00;;;;;;5024048;28;20479;-60
2021/12/02 08:10:10;;;;;;;1.55;0.40;;;20.50;54.20;;;;;;5024850;28;20092;-61
2021/12/02 08:12:36;;;;;;;1.58;0.50;;;20.60;54.30;;;;;;5029035;28;20041;-61
2021/12/02 08:15:06;;;;;;;2.25;0.60;;;20.60;54.40;;;;;;5033932;28;20047;-61
2021/12/02 08:17:32;;;;;;;1.00;0.50;;;20.50;54.30;;;;;;5034130;28;20049;-61
2021/12/02 08:19:57;;;;;;;3.30;0.70;;;20.60;54.50;;;;;;5031854;28;20041;-59
2021/12/02 08:22:23;;;;;;;2.78;0.80;;;20.60;54.40;;;;;;5034129;28;20045;-59
2021/12/02 08:24:48;;;;;;;2.30;0.60;;;20.60;54.50;;;;;;5033799;28;20081;-59
2021/12/02 08:27:14;;;;;;;1.45;0.52;;;20.60;54.50;;;;;;5033185;28;20049;-59
2021/12/02 08:29:41;;;;;;;2.35;0.70;;;20.60;54.50;;;;;;5049107;28;20045;-59
2021/12/02 08:32:07;;;;;;;1.80;0.67;;;20.60;54.50;;;;;;5033042;28;20049;-59
2021/12/02 08:34:32;;;;;;;1.75;0.70;;;20.60;54.50;;;;;;5033873;28;20080;-59
2021/12/02 08:36:58;;;;;;;2.53;0.85;;;20.60;54.50;;;;;;5018765;28;20046;-58
2021/12/02 08:39:27;;;;;;;1.75;0.77;;;20.60;54.50;;;;;;5013177;28;20046;-58
2021/12/02 08:41:54;;;;;;;1.83;0.60;;;20.60;54.50;;;;;;5013481;28;20049;-59
2021/12/02 08:44:22;;;;;;;2.35;0.80;;;20.60;54.20;;;;;;5014135;28;20100;-58
2021/12/02 08:46:48;;;;;;;2.63;0.73;;;20.70;54.10;;;;;;5012905;28;20053;-59
2021/12/02 08:49:13;;;;;;;2.45;0.70;;;20.60;54.00;;;;;;5012152;28;20050;-59
2021/12/02 08:51:39;;;;;;;2.13;0.63;;;20.60;53.90;;;;;;5011913;28;20046;-58
2021/12/02 08:54:04;;;;;;;4.68;0.70;;;20.60;53.80;;;;;;5011860;28;20046;-58
2021/12/02 08:56:30;;;;;;;2.20;0.90;;;20.60;53.80;;;;;;5013841;28;20084;-59
2021/12/02 08:58:56;;;;;;;3.13;0.70;;;20.60;54.00;;;;;;5013369;28;20085;-58
2021/12/02 09:01:21;;;;;;;3.17;0.70;;;20.70;54.20;;;;;;5012722;28;20132;-59
2021/12/02 09:03:47;;;;;;;1.45;0.60;;;20.70;54.30;;;;;;5013396;28;20390;-59
2021/12/02 09:06:13;;;;;;;2.45;0.80;;;20.70;54.50;;;;;;5013695;28;20457;-58
2021/12/02 09:08:40;;;;;;;2.40;0.80;;;20.70;54.40;;;;;;5012689;28;20184;-59
2021/12/02 09:11:05;;;;;;;1.98;0.70;;;20.70;54.50;;;;;;5013787;28;20045;-58
2021/12/02 09:13:31;;;;;;;1.95;0.68;;;20.70;54.60;;;;;;5013680;28;20520;-59
2021/12/02 09:15:57;;;;;;;1.95;0.80;;;20.70;54.60;;;;;;5012237;28;20046;-59
2021/12/02 09:18:23;;;;;;;2.47;0.60;;;20.70;54.60;;;;;;5013490;28;20548;-59
2021/12/02 09:20:48;;;;;;;1.20;0.50;;;20.70;54.60;;;;;;5012035;28;20045;-59
2021/12/02 09:23:14;;;;;;;2.08;0.70;;;20.70;54.60;;;;;;5011174;28;20409;-60
2021/12/02 09:25:40;;;;;;;2.15;0.82;;;20.70;54.60;;;;;;5013406;28;20046;-59
2021/12/02 09:28:06;;;;;;;3.30;0.70;;;20.70;54.70;;;;;;5013226;28;20041;-59
2021/12/02 09:30:31;;;;;;;3.50;0.63;;;20.80;54.70;;;;;;5017329;28;20132;-58
2021/12/02 09:32:57;;;;;;;2.97;0.60;;;20.70;54.50;;;;;;5023051;28;20555;-58
2021/12/02 09:35:23;;;;;;;1.20;0.50;;;20.80;54.50;;;;;;5023615;28;20065;-57
2021/12/02 09:37:49;;;;;;;1.48;0.50;;;20.80;54.40;;;;;;5021852;28;20045;-57
2021/12/02 09:40:17;;;;;;;3.05;0.50;;;20.70;54.30;;;;;;5022780;28;20038;-57
2021/12/02 09:42:42;;;;;;;;;;;20.70;54.20;;;;;;5020558;28;20497;-57
2021/12/02 09:45:08;;;;;;;0.90;0.50;;;20.70;54.20;;;;;;5023420;28;19968;-59
2021/12/02 09:47:37;;;;;;;2.83;0.60;;;20.80;54.30;;;;;;5021655;28;20041;-59
2021/12/02 09:50:07;;;;;;;1.05;0.60;;;20.80;54.30;;;;;;5020665;28;20041;-59
2021/12/02 09:52:36;;;;;;;1.20;0.60;;;20.70;54.20;;;;;;5022731;28;20030;-59
2021/12/02 09:55:11;;;;;;;1.80;0.60;;;20.70;54.20;;;;;;5018293;28;20042;-60
2021/12/02 09:57:41;;;;;;;1.85;0.40;;;20.80;54.20;;;;;;5020541;28;20046;-59
2021/12/02 10:00:08;;;;;;;1.20;0.50;;;20.80;54.20;;;;;;5022654;28;20482;-59
2021/12/02 10:02:41;;;;;;;1.40;0.52;;;20.80;54.20;;;;;;5024000;28;20513;-60
2021/12/02 10:05:09;;;;;;;1.58;0.55;;;20.80;54.10;;;;;;5022920;28;20508;-59
2021/12/02 10:07:50;;;;;;;1.48;0.60;;;20.80;54.10;;;;;;5025445;28;20049;-60
2021/12/02 10:10:30;;;;;;;2.53;0.60;;;20.80;54.10;;;;;;5040951;28;20064;-59
2021/12/02 10:13:05;;;;;;;2.10;0.50;;;20.80;54.10;;;;;;5027820;28;20548;-60
2021/12/02 10:15:31;;;;;;;1.90;0.70;;;20.80;54.10;;;;;;5025370;28;20044;-59
2021/12/02 10:18:10;;;;;;;1.23;0.47;;;20.80;54.10;;;;;;5026689;28;20128;-59
2021/12/02 10:20:41;;;;;;;1.27;0.55;;;20.80;54.10;;;;;;5031196;28;20046;-60
2021/12/02 10:23:14;;;;;;;1.17;0.43;;;20.80;54.00;;;;;;5016149;28;20409;-59
2021/12/02 10:25:44;;;;;;;1.67;0.60;;;20.80;54.00;;;;;;5014268;28;20045;-59
2021/12/02 10:28:11;;;;;;;1.77;0.52;;;20.90;54.10;;;;;;5016674;28;20046;-59
2021/12/02 10:30:41;;;;;;;1.38;0.70;;;20.90;54.00;;;;;;5016282;28;20405;-59
2021/12/02 10:33:07;;;;;;;1.58;0.50;;;20.90;53.90;;;;;;5020611;28;20049;-59
2021/12/02 10:35:37;;;;;;;3.00;0.60;;;20.90;54.00;;;;;;5016972;28;20099;-60
2021/12/02 10:38:02;;;;;;;1.60;0.57;;;20.90;54.10;;;;;;5014847;28;20168;-60
2021/12/02 10:40:28;;;;;;;2.72;0.60;;;20.90;54.30;;;;;;5014439;28;20136;-60
2021/12/02 10:42:54;;;;;;;1.10;0.50;;;21.00;54.60;;;;;;5016016;28;20057;-60
2021/12/02 10:45:27;;;;;;;2.55;0.60;;;20.90;54.50;;;;;;5015794;28;20053;-59
2021/12/02 10:47:53;;;;;;;1.40;0.50;;;20.90;54.50;;;;;;5013848;28;20081;-60
2021/12/02 10:50:20;;;;;;;1.23;0.65;;;21.00;54.50;;;;;;5016025;28;20050;-60
2021/12/02 10:52:45;;;;;;;2.60;0.60;;;20.90;54.50;;;;;;5013872;28;20172;-59
2021/12/02 10:55:13;;;;;;;1.50;0.70;;;21.00;54.60;;;;;;5016048;28;20129;-60
2021/12/02 10:57:44;;;;;;;1.00;0.40;;;21.00;54.60;;;;;;5016101;28;20030;-60
2021/12/02 11:00:12;;;;;;;1.95;0.50;;;21.00;54.50;;;;;;5014967;28;20061;-59
2021/12/02 11:02:40;;;;;;;1.05;0.50;;;21.00;54.50;;;;;;5016064;28;20049;-59
2021/12/02 11:05:10;;;;;;;2.38;0.68;;;21.00;54.60;;;;;;5021120;28;20125;-59
2021/12/02 11:07:39;;;;;;;1.63;0.60;;;21.10;54.60;;;;;;5033347;28;20057;-59
2021/12/02 11:10:13;;;;;;;2.60;0.63;;;21.10;54.70;;;;;;5034964;28;20045;-59
2021/12/02 11:12:43;;;;;;;1.98;0.50;;;21.10;54.70;;;;;;5029408;28;20038;-59
2021/12/02 11:15:25;;;;;;;2.67;0.68;;;21.00;54.60;;;;;;5022645;28;20065;-59
2021/12/02 11:17:57;;;;;;;3.15;0.52;;;21.10;54.70;;;;;;5023807;28;20191;-59
2021/12/02 11:20:37;;;;;;;2.65;0.55;;;21.00;54.60;;;;;;5024710;28;20046;-59
2021/12/02 11:23:08;;;;;;;1.67;0.50;;;21.00;54.70;;;;;;5014458;28;20478;-59
2021/12/02 11:25:36;;;;;;;1.73;0.55;;;21.10;54.80;;;;;;5015673;28;20128;-60
2021/12/02 11:28:07;;;;;;;1.83;0.50;;;21.10;54.60;;;;;;5014655;28;20038;-60
2021/12/02 11:30:32;;;;;;;2.15;0.45;;;21.00;54.50;;;;;;5015370;28;20309;-61
2021/12/02 11:33:05;;;;;;;1.20;0.43;;;21.00;54.50;;;;;;5014095;28;20445;-60
2021/12/02 11:35:34;;;;;;;2.78;0.60;;;21.00;54.50;;;;;;5014581;28;20548;-60
2021/12/02 11:38:10;;;;;;;1.23;0.40;;;21.10;54.50;;;;;;5015118;28;20073;-60
2021/12/02 11:40:40;;;;;;;3.30;0.60;;;21.00;54.40;;;;;;5013914;28;20080;-60
2021/12/02 11:43:07;;;;;;;4.45;0.60;;;21.00;54.40;;;;;;5014490;28;20444;-60
2021/12/02 11:45:36;;;;;;;3.85;0.57;;;21.00;54.40;;;;;;5015157;28;20049;-60
2021/12/02 11:48:01;;;;;;;1.65;0.50;;;21.00;54.40;;;;;;5014602;28;20081;-60
2021/12/02 11:50:28;;;;;;;1.92;0.50;;;21.00;54.10;;;;;;5014663;28;20165;-59
2021/12/02 11:52:54;;;;;;;1.10;0.32;;;21.10;54.10;;;;;;5023819;28;20059;-59
2021/12/02 11:55:22;;;;;;;1.73;0.50;;;21.00;54.00;;;;;;5023728;28;20194;-59
2021/12/02 11:57:48;;;;;;;3.05;0.45;;;21.00;54.10;;;;;;5024176;28;20409;-59
2021/12/02 12:00:15;;;;;;;1.90;0.40;;;21.00;54.10;;;;;;5023558;28;20509;-60
2021/12/02 12:03:02;;;;;;;1.15;0.50;;;21.00;54.10;;;;;;5021647;28;20113;-60
2021/12/02 12:05:32;;;;;;;2.13;0.45;;;21.00;54.20;;;;;;5025902;28;20038;-59
2021/12/02 12:07:58;;;;;;;1.27;0.47;;;21.00;54.30;;;;;;5024222;28;20046;-60
2021/12/02 12:10:32;;;;;;;2.65;0.40;;;21.00;54.40;;;;;;5024672;28;20057;-59
2021/12/02 12:13:19;;;;;;;2.42;0.40;;;21.10;54.50;;;;;;5038719;28;20060;-59
2021/12/02 12:15:54;;;;;;;0.52;0.40;;;21.10;54.60;;;;;;5025146;28;20038;-59
2021/12/02 12:18:27;;;;;;;2.15;0.40;;;21.00;54.60;;;;;;5022614;28;20033;-59
2021/12/02 12:21:03;;;;;;;0.90;0.40;;;21.00;54.60;;;;;;5024513;28;20084;-59
2021/12/02 12:23:35;;;;;;;1.63;0.40;;;21.00;54.60;;;;;;5022607;28;20046;-60
2021/12/02 12:26:11;;;;;;;1.45;0.40;;;21.00;54.40;;;;;;5024527;28;20050;-59
2021/12/02 12:34:37;;;;;;;;;;;21.10;54.60;;;;;;5025483;28;20041;-59
2021/12/02 12:37:23;;;;;;;1.08;0.40;;;21.10;54.50;;;;;;5022557;28;19948;-58
2021/12/02 12:40:07;;;;;;;2.30;0.25;;;21.10;54.60;;;;;;5017571;28;20509;-58
2021/12/02 12:42:34;;;;;;;1.67;0.30;;;21.10;54.40;;;;;;5023513;28;20068;-59
2021/12/02 12:44:59;;;;;;;1.35;0.50;;;21.10;54.30;;;;;;5030686;28;20050;-58
2021/12/02 12:47:43;;;;;;;1.20;0.40;;;21.10;54.10;;;;;;5031684;28;20041;-60
2021/12/02 12:50:38;;;;;;;1.63;0.40;;;21.10;53.80;;;;;;5033646;28;20056;-59
2021/12/02 12:53:07;;;;;;;0.73;0.30;;;21.10;53.80;;;;;;5031524;28;20049;-58
2021/12/02 12:55:36;;;;;;;1.58;0.30;;;21.00;53.70;;;;;;5032600;28;20132;-60
2021/12/02 12:58:17;;;;;;;0.75;0.50;;;21.00;53.60;;;;;;5026115;28;20137;-59
2021/12/02 13:00:48;;;;;;;1.58;0.50;;;21.10;52.90;;;;;;5026021;28;20049;-59
2021/12/02 13:03:16;;;;;;;1.73;0.30;;;21.10;52.50;;;;;;5033608;28;20057;-59
2021/12/02 13:05:54;;;;;;;1.60;0.30;;;21.00;52.00;;;;;;5033238;28;20062;-59